Gao Qiang — VRVQ8 — position and weather

sailwx.info

Track history (hours):
 
Tides and Currents Weather Stations Pressure Air Temp Water Temp Dewpoint Dewpoint Depression Visibility Wind Speed Wind Dir Waves Ship Positions

Gao Qiang

Last reported at 2017-Feb-21 07:16 UTC. Time now 2017-Feb-21 14:40 UTC.
Position N 01°16' E 103°24'.

Length 186 m; draft 8.5 m.

Type: Cargo ship. MMSI: 477611000.

Date/timePositionNaut miles runAvg speedWind from/ knotsBaromVisibWave heightAir tempDewpointWater temp
2017-Feb-21 07:16N 01°16' E 103°24'1013.6
2017-Feb-21 06:33N 01°12' E 103°33'1312.7
2017-Feb-21 05:33N 01°09' E 103°45'1111.3
2017-Feb-21 04:33N 01°14' E 103°55'4 0.8
2017-Feb-20 23:27N 01°17' E 103°58'0 0.1
2017-Feb-20 22:24N 01°17' E 103°58'0 0.1
2017-Feb-20 21:18N 01°17' E 103°58'0 0.0
2017-Feb-20 17:15N 01°17' E 103°58'2 3.2
2017-Feb-20 16:33N 01°15' E 103°57'  
2017-Feb-16 14:33N 21°03' E 110°41'1010.4
2017-Feb-16 13:34N 21°05' E 110°30'0 0.3
2017-Feb-16 12:30N 21°05' E 110°30'0 0.0
2017-Feb-16 11:27N 21°05' E 110°30'0 0.0
2017-Feb-16 10:21N 21°05' E 110°30'0 0.0
2017-Feb-16 09:27N 21°05' E 110°30'0 0.0
2017-Feb-16 06:33N 21°05' E 110°30'0 0.0
2017-Feb-16 05:30N 21°05' E 110°30'0 0.0
2017-Feb-16 04:33N 21°05' E 110°30'0 0.0
2017-Feb-16 00:25N 21°05' E 110°30'0 0.0
2017-Feb-15 23:31N 21°05' E 110°30'0 0.0
2017-Feb-15 22:31N 21°05' E 110°30'0 0.0
2017-Feb-15 21:31N 21°05' E 110°30'0 0.0
2017-Feb-15 20:13N 21°05' E 110°30'0 0.0
2017-Feb-15 19:25N 21°05' E 110°30'0 0.0
2017-Feb-15 18:25N 21°05' E 110°30'0 0.0
2017-Feb-15 17:31N 21°05' E 110°30'0 0.0
2017-Feb-15 16:31N 21°05' E 110°30'0 0.0
2017-Feb-15 15:31N 21°05' E 110°30'0 0.0
2017-Feb-15 14:34N 21°05' E 110°30'0 0.0
2017-Feb-15 13:28N 21°05' E 110°30'0 0.0
2017-Feb-15 12:28N 21°05' E 110°30'0 0.0
2017-Feb-15 11:25N 21°05' E 110°30'0 0.0
2017-Feb-15 10:31N 21°05' E 110°30'0 0.0
2017-Feb-15 09:28N 21°05' E 110°30'0 0.0
2017-Feb-15 08:25N 21°05' E 110°30'0 0.0
2017-Feb-15 07:31N 21°05' E 110°30'0 0.0
2017-Feb-15 06:25N 21°05' E 110°30'0 0.0
2017-Feb-15 05:31N 21°05' E 110°30'0 0.0
2017-Feb-15 04:25N 21°05' E 110°30'0 0.0
2017-Feb-15 03:28N 21°05' E 110°30'0 0.0
2017-Feb-15 02:31N 21°05' E 110°30'0 0.5
2017-Feb-15 01:33N 21°05' E 110°30'8 7.8
2017-Feb-15 00:33N 21°03' E 110°38'1312.4
2017-Feb-14 23:33N 21°02' E 110°52'2 0.2
2017-Feb-14 16:30N 21°03' E 110°53'  
2017-Feb-11 12:18N 31°05' E 122°29'7 8.8
2017-Feb-11 11:32N 31°06' E 122°21'1313.2
2017-Feb-11 10:33N 31°12' E 122°08'1514.7
2017-Feb-11 09:33N 31°16' E 121°52'1313.4
2017-Feb-11 08:33N 31°22' E 121°37'8 8.2
2017-Feb-11 07:33N 31°26' E 121°29'  
Track history (hours):
 
Tides and Currents Weather Stations Pressure Air Temp Water Temp Dewpoint Dewpoint Depression Visibility Wind Speed Wind Dir Waves Ship Positions

Gao Qiang

Last reported at 2017-Feb-21 07:16 UTC. Time now 2017-Feb-21 14:40 UTC.
Position N 01°16' E 103°24'.

Length 186 m; draft 8.5 m.

Type: Cargo ship. MMSI: 477611000.

Date/timePositionNaut miles runAvg speedWind from/ knotsBaromVisibWave heightAir tempDewpointWater temp
2017-Feb-21 07:16N 01°16' E 103°24'1013.6
2017-Feb-21 06:33N 01°12' E 103°33'1312.7
2017-Feb-21 05:33N 01°09' E 103°45'1111.3
2017-Feb-21 04:33N 01°14' E 103°55'4 0.8
2017-Feb-20 23:27N 01°17' E 103°58'0 0.1
2017-Feb-20 22:24N 01°17' E 103°58'0 0.1
2017-Feb-20 21:18N 01°17' E 103°58'0 0.0
2017-Feb-20 17:15N 01°17' E 103°58'2 3.2
2017-Feb-20 16:33N 01°15' E 103°57'  
2017-Feb-16 14:33N 21°03' E 110°41'1010.4
2017-Feb-16 13:34N 21°05' E 110°30'0 0.3
2017-Feb-16 12:30N 21°05' E 110°30'0 0.0
2017-Feb-16 11:27N 21°05' E 110°30'0 0.0
2017-Feb-16 10:21N 21°05' E 110°30'0 0.0
2017-Feb-16 09:27N 21°05' E 110°30'0 0.0
2017-Feb-16 06:33N 21°05' E 110°30'0 0.0
2017-Feb-16 05:30N 21°05' E 110°30'0 0.0
2017-Feb-16 04:33N 21°05' E 110°30'0 0.0
2017-Feb-16 00:25N 21°05' E 110°30'0 0.0
2017-Feb-15 23:31N 21°05' E 110°30'0 0.0
2017-Feb-15 22:31N 21°05' E 110°30'0 0.0
2017-Feb-15 21:31N 21°05' E 110°30'0 0.0
2017-Feb-15 20:13N 21°05' E 110°30'0 0.0
2017-Feb-15 19:25N 21°05' E 110°30'0 0.0
2017-Feb-15 18:25N 21°05' E 110°30'0 0.0
2017-Feb-15 17:31N 21°05' E 110°30'0 0.0
2017-Feb-15 16:31N 21°05' E 110°30'0 0.0
2017-Feb-15 15:31N 21°05' E 110°30'0 0.0
2017-Feb-15 14:34N 21°05' E 110°30'0 0.0
2017-Feb-15 13:28N 21°05' E 110°30'0 0.0
2017-Feb-15 12:28N 21°05' E 110°30'0 0.0
2017-Feb-15 11:25N 21°05' E 110°30'0 0.0
2017-Feb-15 10:31N 21°05' E 110°30'0 0.0
2017-Feb-15 09:28N 21°05' E 110°30'0 0.0
2017-Feb-15 08:25N 21°05' E 110°30'0 0.0
2017-Feb-15 07:31N 21°05' E 110°30'0 0.0
2017-Feb-15 06:25N 21°05' E 110°30'0 0.0
2017-Feb-15 05:31N 21°05' E 110°30'0 0.0
2017-Feb-15 04:25N 21°05' E 110°30'0 0.0
2017-Feb-15 03:28N 21°05' E 110°30'0 0.0
2017-Feb-15 02:31N 21°05' E 110°30'0 0.5
2017-Feb-15 01:33N 21°05' E 110°30'8 7.8
2017-Feb-15 00:33N 21°03' E 110°38'1312.4
2017-Feb-14 23:33N 21°02' E 110°52'2 0.2
2017-Feb-14 16:30N 21°03' E 110°53'  
2017-Feb-11 12:18N 31°05' E 122°29'7 8.8
2017-Feb-11 11:32N 31°06' E 122°21'1313.2
2017-Feb-11 10:33N 31°12' E 122°08'1514.7
2017-Feb-11 09:33N 31°16' E 121°52'1313.4
2017-Feb-11 08:33N 31°22' E 121°37'8 8.2
2017-Feb-11 07:33N 31°26' E 121°29'  

Dump ship's entire track history